Terminal Aerodrome Forecast
Issued by NWS

Home | Current Version | Previous Version | Text Only | Print | Product List | Glossary On
Versions: 1 2 3 4 5 6 7 8 9 10 11 12 13 14 15 16 17 18 19
000
FTUS43 KEAX 151700
TAFSTJ
TAF
KSTJ 151724Z 1518/1618 34015KT P6SM OVC012
     FM151930 35010KT P6SM SCT020 BKN030
     FM160100 03007KT P6SM FEW040
     FM160900 04005KT 4SM BR BKN010
     FM161500 17008KT P6SM SCT040=

USA.gov is the U.S. government's official web portal to all federal, state and local government web resources and services.